Time;durP1;ratioP1;P1;durP2;ratioP2;P2;SDS_P1;SDS_P2;PMS_P1;PMS_P2;Temp;Humidity;BMP_temperature;BMP_pressure;BME280_temperature;BME280_humidity;BME280_pressure;Samples;Min_cycle;Max_cycle;Signal;HPM_P1;HPM_P2
2022/08/13 00:01:27;;;;;;;5.07;3.30;;;20.50;99.90;;;;;;5039983;28;20256;-57
2022/08/13 00:04:01;;;;;;;3.13;2.93;;;20.50;99.90;;;;;;5033804;28;20235;-56
2022/08/13 00:09:23;;;;;;;4.97;3.17;;;20.40;99.90;;;;;;5028367;28;20271;-57
2022/08/13 00:14:59;;;;;;;4.83;3.00;;;20.30;99.90;;;;;;5035164;28;20234;-57
2022/08/13 00:17:33;;;;;;;5.27;3.07;;;20.30;99.90;;;;;;5034699;28;20235;-57
2022/08/13 00:20:23;;;;;;;5.93;3.20;;;20.20;99.90;;;;;;5033803;28;20236;-56
2022/08/13 00:22:55;;;;;;;5.60;3.03;;;20.20;99.90;;;;;;5034579;28;20224;-57
2022/08/13 00:25:29;;;;;;;3.70;3.07;;;20.10;99.90;;;;;;5034413;28;20290;-57
2022/08/13 00:28:11;;;;;;;5.13;2.83;;;20.10;99.90;;;;;;5026591;28;20233;-56
2022/08/13 00:30:44;;;;;;;4.27;2.93;;;20.00;99.90;;;;;;5039069;28;20315;-56
2022/08/13 00:33:19;;;;;;;3.37;2.87;;;19.90;99.90;;;;;;5027115;28;20228;-56
2022/08/13 00:36:08;;;;;;;3.17;2.83;;;19.90;99.90;;;;;;5033246;28;20233;-57
2022/08/13 00:38:38;;;;;;;5.03;2.77;;;19.80;99.90;;;;;;5034194;28;20264;-57
2022/08/13 00:41:37;;;;;;;4.17;2.77;;;19.80;99.90;;;;;;5033365;28;20279;-57
2022/08/13 00:44:17;;;;;;;6.07;3.20;;;19.80;99.90;;;;;;5033140;28;20225;-57
2022/08/13 00:46:47;;;;;;;3.10;2.70;;;19.70;99.90;;;;;;5034422;28;20704;-57
2022/08/13 00:49:16;;;;;;;3.93;3.10;;;19.70;99.90;;;;;;5033642;28;20216;-57
2022/08/13 00:51:44;;;;;;;3.27;3.00;;;19.60;99.90;;;;;;5032846;28;20224;-56
2022/08/13 00:54:26;;;;;;;3.73;3.07;;;19.60;99.90;;;;;;5034160;28;20643;-57
2022/08/13 00:56:57;;;;;;;5.77;3.50;;;19.50;99.90;;;;;;5033936;28;20220;-57
2022/08/13 00:59:25;;;;;;;4.20;3.03;;;19.50;99.90;;;;;;5033796;28;20232;-56
2022/08/13 01:02:13;;;;;;;4.97;3.30;;;19.50;99.90;;;;;;5037541;28;20247;-57
2022/08/13 01:04:46;;;;;;;4.97;2.90;;;19.40;99.90;;;;;;5030293;28;20322;-57
2022/08/13 01:07:18;;;;;;;4.03;2.80;;;19.40;99.90;;;;;;5034100;28;20224;-56
2022/08/13 01:10:08;;;;;;;4.00;3.20;;;19.30;99.90;;;;;;5032961;28;20710;-56
2022/08/13 01:12:49;;;;;;;5.43;3.63;;;19.30;99.90;;;;;;5033157;28;20234;-57
2022/08/13 01:15:19;;;;;;;5.60;3.10;;;19.20;99.90;;;;;;5033633;28;20565;-58
2022/08/13 01:17:52;;;;;;;3.63;3.20;;;19.20;99.90;;;;;;5033945;28;20271;-56
2022/08/13 01:20:28;;;;;;;4.93;3.50;;;19.20;99.90;;;;;;5032864;28;20776;-56
2022/08/13 01:23:04;;;;;;;3.90;3.20;;;19.10;99.90;;;;;;5033714;28;20224;-57
2022/08/13 01:25:32;;;;;;;5.37;3.40;;;19.10;99.90;;;;;;5033316;28;20238;-56
2022/08/13 01:28:22;;;;;;;4.10;2.97;;;19.10;99.90;;;;;;5027201;28;20228;-57
2022/08/13 01:30:52;;;;;;;3.93;3.57;;;19.10;99.90;;;;;;5037898;28;20231;-56
2022/08/13 01:33:21;;;;;;;3.57;2.90;;;19.10;99.90;;;;;;5033255;28;20221;-57
2022/08/13 01:35:52;;;;;;;4.17;3.37;;;19.10;99.90;;;;;;5031182;28;20587;-57
2022/08/13 01:38:24;;;;;;;4.87;3.10;;;19.10;99.90;;;;;;5033679;28;20225;-58
2022/08/13 01:40:56;;;;;;;5.23;3.20;;;19.10;99.90;;;;;;5033212;28;20226;-57
2022/08/13 01:43:30;;;;;;;5.30;3.33;;;19.10;99.90;;;;;;5033063;28;20231;-57
2022/08/13 01:45:59;;;;;;;4.20;3.17;;;19.10;99.90;;;;;;5033361;28;20705;-57
2022/08/13 01:51:30;;;;;;;4.33;3.10;;;19.10;99.90;;;;;;5033567;28;20679;-58
2022/08/13 01:54:09;;;;;;;4.77;3.27;;;19.00;99.90;;;;;;5033456;28;20233;-57
2022/08/13 01:56:59;;;;;;;3.13;2.83;;;19.00;99.90;;;;;;5032906;28;20230;-56
2022/08/13 01:59:28;;;;;;;4.30;3.00;;;19.00;99.90;;;;;;5031883;28;20232;-57
2022/08/13 02:02:16;;;;;;;3.60;2.80;;;18.90;99.90;;;;;;5037404;28;20236;-57
2022/08/13 02:05:05;;;;;;;5.50;4.17;;;18.90;99.90;;;;;;5032499;28;20247;-57
2022/08/13 02:07:39;;;;;;;3.53;3.13;;;18.90;99.90;;;;;;5032926;28;20270;-57
2022/08/13 02:10:29;;;;;;;3.57;2.97;;;18.80;99.90;;;;;;5025476;28;20216;-57
2022/08/13 02:13:01;;;;;;;3.37;3.07;;;18.80;99.90;;;;;;5032578;28;20648;-57
2022/08/13 02:15:32;;;;;;;3.60;3.10;;;18.80;99.90;;;;;;5027620;28;20231;-57
2022/08/13 02:18:17;;;;;;;4.57;3.00;;;18.70;99.90;;;;;;5032050;28;20322;-57
2022/08/13 02:20:50;;;;;;;3.40;3.03;;;18.70;99.90;;;;;;5031617;28;20590;-57
2022/08/13 02:23:21;;;;;;;4.80;2.83;;;18.70;99.90;;;;;;5032681;28;20315;-58
2022/08/13 02:26:10;;;;;;;3.70;3.20;;;18.70;99.90;;;;;;5024436;28;20231;-57
2022/08/13 02:28:39;;;;;;;3.27;2.80;;;18.70;99.90;;;;;;5032680;28;20631;-57
2022/08/13 02:31:12;;;;;;;3.73;3.03;;;18.60;99.90;;;;;;5037101;28;20246;-57
2022/08/13 02:33:54;;;;;;;4.97;3.60;;;18.60;99.90;;;;;;5032685;28;20702;-57
2022/08/13 02:36:23;;;;;;;5.63;3.20;;;18.60;99.90;;;;;;5032679;28;20698;-57
2022/08/13 02:38:55;;;;;;;5.37;3.40;;;18.60;99.90;;;;;;5032517;28;20230;-57
2022/08/13 02:41:41;;;;;;;4.03;3.13;;;18.50;99.90;;;;;;5031185;28;20231;-56
2022/08/13 02:44:25;;;;;;;4.53;3.50;;;18.50;99.90;;;;;;5021129;28;20266;-57
2022/08/13 02:47:04;;;;;;;3.70;3.20;;;18.40;99.90;;;;;;5032335;28;20243;-57
2022/08/13 02:49:32;;;;;;;5.67;3.00;;;18.40;99.90;;;;;;5031340;28;20278;-57
2022/08/13 02:52:14;;;;;;;4.33;3.20;;;18.40;99.90;;;;;;5025100;28;20690;-57
2022/08/13 02:54:45;;;;;;;3.50;3.20;;;18.30;99.90;;;;;;5032134;28;20228;-58
2022/08/13 02:57:24;;;;;;;3.83;3.20;;;18.30;99.90;;;;;;5026002;28;20277;-57
2022/08/13 02:59:54;;;;;;;6.83;3.30;;;18.30;99.90;;;;;;5035653;28;20238;-57
2022/08/13 03:02:31;;;;;;;4.13;3.20;;;18.30;99.90;;;;;;5030441;28;20239;-57
2022/08/13 03:05:01;;;;;;;4.17;3.30;;;18.30;99.90;;;;;;5036872;28;20244;-57
2022/08/13 03:07:33;;;;;;;5.37;3.43;;;18.30;99.90;;;;;;5036013;28;20238;-57
2022/08/13 03:10:22;;;;;;;3.60;3.30;;;18.20;99.90;;;;;;5026041;28;20786;-57
2022/08/13 03:13:07;;;;;;;4.53;3.40;;;18.20;99.90;;;;;;5035437;28;20231;-56
2022/08/13 03:15:37;;;;;;;8.60;3.33;;;18.20;99.90;;;;;;5035762;28;20234;-57
2022/08/13 03:18:25;;;;;;;4.70;3.23;;;18.20;99.90;;;;;;5016467;28;20243;-57
2022/08/13 03:21:05;;;;;;;4.37;3.40;;;18.10;99.90;;;;;;5033849;28;20694;-57
2022/08/13 03:23:43;;;;;;;6.43;3.30;;;18.10;99.90;;;;;;5035697;28;20329;-57
2022/08/13 03:26:17;;;;;;;3.97;3.23;;;18.10;99.90;;;;;;5035546;28;20614;-57
2022/08/13 03:28:50;;;;;;;4.20;3.20;;;18.10;99.90;;;;;;5035765;28;20240;-57
2022/08/13 03:31:24;;;;;;;6.70;3.43;;;18.00;99.90;;;;;;5040276;28;20708;-57
2022/08/13 03:33:58;;;;;;;6.00;3.30;;;18.00;99.90;;;;;;5035502;28;20228;-57
2022/08/13 03:36:32;;;;;;;4.47;3.23;;;18.00;99.90;;;;;;5030501;28;20349;-57
2022/08/13 03:39:01;;;;;;;3.53;3.17;;;18.00;99.90;;;;;;5035557;28;20227;-57
2022/08/13 03:41:30;;;;;;;5.27;3.03;;;17.90;99.90;;;;;;5033638;28;20227;-56
2022/08/13 03:44:18;;;;;;;3.77;3.27;;;17.90;99.90;;;;;;5017712;28;20242;-58
2022/08/13 03:46:47;;;;;;;8.50;3.77;;;17.90;99.90;;;;;;5035422;28;20582;-57
2022/08/13 03:49:19;;;;;;;3.37;3.00;;;17.80;99.90;;;;;;5035629;28;20229;-57
2022/08/13 03:51:47;;;;;;;3.97;3.23;;;17.80;99.90;;;;;;5035756;28;20222;-57
2022/08/13 03:54:15;;;;;;;2.83;2.53;;;17.80;99.90;;;;;;5035242;28;20233;-57
2022/08/13 03:56:53;;;;;;;5.13;2.97;;;17.70;99.90;;;;;;5035489;28;20227;-57
2022/08/13 03:59:31;;;;;;;4.07;2.70;;;17.70;99.90;;;;;;5035592;28;20229;-57
2022/08/13 04:02:16;;;;;;;4.10;3.07;;;17.70;99.90;;;;;;5039403;28;20231;-57
2022/08/13 04:04:47;;;;;;;3.90;2.90;;;17.70;99.90;;;;;;5034667;28;20274;-57
2022/08/13 04:07:17;;;;;;;3.10;2.90;;;17.70;99.90;;;;;;5035268;28;20231;-57
2022/08/13 04:09:47;;;;;;;3.40;3.10;;;17.70;99.90;;;;;;5035237;28;20269;-57
2022/08/13 04:12:23;;;;;;;5.00;2.90;;;17.60;99.90;;;;;;5034197;28;20700;-57
2022/08/13 04:14:53;;;;;;;3.50;2.90;;;17.60;99.90;;;;;;5034993;28;20281;-57
2022/08/13 04:17:30;;;;;;;3.50;3.20;;;17.60;99.90;;;;;;5034995;28;20230;-56
2022/08/13 04:20:03;;;;;;;3.87;3.20;;;17.60;99.90;;;;;;5034390;28;20238;-56
2022/08/13 04:22:33;;;;;;;4.50;3.40;;;17.60;99.90;;;;;;5034788;28;20231;-58
2022/08/13 04:25:05;;;;;;;3.63;3.30;;;17.60;99.90;;;;;;5034804;28;20634;-58
2022/08/13 04:27:54;;;;;;;3.77;3.10;;;17.60;99.90;;;;;;5034868;28;20237;-57
2022/08/13 04:30:35;;;;;;;5.23;3.10;;;17.70;99.90;;;;;;5033042;28;20226;-57
2022/08/13 04:33:12;;;;;;;4.17;3.10;;;17.70;99.90;;;;;;5026791;28;20269;-57
2022/08/13 04:35:50;;;;;;;4.30;2.93;;;17.70;99.90;;;;;;5034430;28;20227;-56
2022/08/13 04:38:25;;;;;;;3.87;3.20;;;17.80;99.90;;;;;;5034684;28;20307;-56
2022/08/13 04:40:53;;;;;;;4.43;3.60;;;17.80;99.90;;;;;;5033344;28;20239;-57
2022/08/13 04:43:25;;;;;;;4.00;3.10;;;17.80;99.90;;;;;;5034401;28;20227;-55
2022/08/13 04:46:00;;;;;;;4.50;3.43;;;17.90;99.90;;;;;;5034192;28;20229;-57
2022/08/13 04:48:31;;;;;;;3.50;3.20;;;18.00;99.90;;;;;;5034212;28;20748;-56
2022/08/13 04:51:00;;;;;;;4.43;3.40;;;18.10;99.90;;;;;;5033445;28;20626;-57
2022/08/13 04:53:30;;;;;;;3.93;3.10;;;18.10;99.90;;;;;;5034350;28;20234;-57
2022/08/13 04:56:01;;;;;;;6.90;3.30;;;18.20;99.90;;;;;;5034328;28;20697;-57
2022/08/13 04:58:46;;;;;;;3.50;3.20;;;18.30;99.90;;;;;;5034305;28;20237;-57
2022/08/13 05:01:15;;;;;;;6.90;3.67;;;18.30;99.90;;;;;;5032248;28;20263;-57
2022/08/13 05:04:03;;;;;;;4.10;3.07;;;18.30;99.90;;;;;;5033339;28;20596;-57
2022/08/13 05:06:51;;;;;;;4.00;3.50;;;18.40;99.90;;;;;;5033648;28;20313;-57
2022/08/13 05:09:20;;;;;;;5.27;2.90;;;18.50;99.90;;;;;;5033110;28;20625;-57
2022/08/13 05:11:58;;;;;;;3.60;3.30;;;18.50;99.90;;;;;;5034064;28;20277;-57
2022/08/13 05:14:32;;;;;;;4.67;3.17;;;18.60;99.90;;;;;;5034063;28;20567;-58
2022/08/13 05:17:03;;;;;;;6.53;3.30;;;18.70;99.90;;;;;;5033885;28;20230;-56
2022/08/13 05:19:32;;;;;;;3.30;2.80;;;18.80;99.90;;;;;;5034773;28;20265;-55
2022/08/13 05:22:06;;;;;;;3.57;3.00;;;18.90;99.90;;;;;;5032646;28;20351;-56
2022/08/13 05:24:45;;;;;;;4.33;3.00;;;19.00;99.90;;;;;;5033697;28;20235;-56
2022/08/13 05:27:33;;;;;;;3.27;2.90;;;19.10;99.90;;;;;;5047880;28;20240;-56
2022/08/13 05:30:13;;;;;;;3.00;2.80;;;19.30;99.90;;;;;;5022051;28;20224;-56
2022/08/13 05:33:00;;;;;;;3.20;2.90;;;19.30;99.90;;;;;;5033394;28;20695;-57
2022/08/13 05:35:42;;;;;;;4.30;3.17;;;19.50;99.90;;;;;;5033365;28;20236;-56
2022/08/13 05:38:32;;;;;;;4.13;3.23;;;19.70;99.90;;;;;;5033122;28;20234;-56
2022/08/13 05:41:10;;;;;;;5.40;3.43;;;19.90;99.90;;;;;;5032496;28;20235;-55
2022/08/13 05:43:40;;;;;;;4.07;3.43;;;20.00;99.90;;;;;;5033143;28;20285;-55
2022/08/13 05:46:10;;;;;;;3.63;2.97;;;20.20;99.90;;;;;;5033106;28;20237;-56
2022/08/13 05:48:41;;;;;;;4.23;3.00;;;20.30;99.90;;;;;;5032902;28;20271;-56
2022/08/13 05:51:12;;;;;;;4.80;3.13;;;20.50;99.90;;;;;;5031942;28;20580;-56
2022/08/13 05:53:41;;;;;;;6.33;3.20;;;20.60;99.90;;;;;;5033216;28;20235;-55
2022/08/13 05:56:32;;;;;;;6.23;3.57;;;20.90;99.90;;;;;;5026107;28;20231;-56
2022/08/13 05:59:02;;;;;;;5.07;3.30;;;21.00;99.90;;;;;;5032880;28;20282;-57
2022/08/13 06:04:26;;;;;;;3.43;3.07;;;21.40;99.90;;;;;;5032887;28;20232;-55
2022/08/13 06:07:13;;;;;;;5.67;3.13;;;21.60;99.90;;;;;;5032589;28;20228;-56
2022/08/13 06:09:41;;;;;;;3.80;2.90;;;21.70;99.90;;;;;;5031593;28;20224;-56
2022/08/13 06:12:10;;;;;;;4.67;3.17;;;21.90;99.90;;;;;;5024918;28;20213;-56
2022/08/13 06:14:58;;;;;;;5.00;3.00;;;22.20;99.90;;;;;;5032702;28;20223;-56
2022/08/13 06:17:35;;;;;;;5.80;3.00;;;22.40;99.90;;;;;;5032452;28;20684;-56
2022/08/13 06:20:11;;;;;;;5.03;3.30;;;22.50;99.90;;;;;;5031852;28;20270;-56
2022/08/13 06:22:47;;;;;;;3.20;2.87;;;22.60;99.90;;;;;;5040947;28;20220;-56
2022/08/13 06:25:21;;;;;;;4.27;2.97;;;22.90;99.90;;;;;;5034678;28;20248;-56
2022/08/13 06:27:49;;;;;;;3.40;2.83;;;23.20;99.90;;;;;;5032334;28;20235;-56
2022/08/13 06:30:25;;;;;;;7.43;3.03;;;23.40;99.90;;;;;;5031321;28;20224;-57
2022/08/13 06:33:01;;;;;;;4.83;3.17;;;23.60;99.90;;;;;;5038120;28;20576;-56
2022/08/13 06:35:52;;;;;;;5.03;3.00;;;23.70;99.90;;;;;;5032807;28;20235;-56
2022/08/13 06:38:27;;;;;;;3.40;3.00;;;23.90;99.90;;;;;;5032465;28;20712;-56
2022/08/13 06:40:59;;;;;;;3.43;3.13;;;24.20;99.90;;;;;;5031645;28;20746;-57
2022/08/13 06:43:29;;;;;;;4.67;2.60;;;24.20;99.90;;;;;;5032632;28;20241;-56
2022/08/13 06:46:16;;;;;;;5.40;3.17;;;24.40;99.90;;;;;;5031978;28;20228;-57
2022/08/13 06:48:57;;;;;;;4.27;2.63;;;24.70;99.90;;;;;;5032015;28;20672;-56
2022/08/13 06:51:27;;;;;;;5.83;3.20;;;25.10;99.90;;;;;;5032295;28;20650;-57
2022/08/13 06:53:55;;;;;;;4.63;2.60;;;25.30;99.90;;;;;;5034225;28;20701;-57
2022/08/13 06:56:44;;;;;;;4.33;3.13;;;25.50;99.90;;;;;;5035229;28;20227;-56
2022/08/13 06:59:26;;;;;;;5.67;2.93;;;25.60;99.90;;;;;;5024628;28;20224;-56
2022/08/13 07:02:18;;;;;;;6.70;2.90;;;25.80;99.90;;;;;;5031885;28;20243;-57
2022/08/13 07:04:48;;;;;;;4.30;2.67;;;26.00;99.90;;;;;;5032196;28;20255;-57
2022/08/13 07:07:24;;;;;;;3.07;2.40;;;26.10;99.90;;;;;;5032161;28;20695;-57
2022/08/13 07:09:52;;;;;;;4.77;2.60;;;26.30;99.90;;;;;;5033706;28;20752;-57
2022/08/13 07:12:21;;;;;;;3.10;2.50;;;26.50;99.90;;;;;;5032161;28;20269;-56
2022/08/13 07:14:52;;;;;;;5.67;2.57;;;26.60;99.90;;;;;;5032499;28;20741;-57
2022/08/13 07:17:29;;;;;;;3.03;2.37;;;26.80;99.90;;;;;;5033660;28;20224;-56
2022/08/13 07:20:02;;;;;;;4.07;2.43;;;26.90;99.90;;;;;;5030570;28;20243;-56
2022/08/13 07:22:36;;;;;;;3.07;2.70;;;27.20;99.90;;;;;;5035892;28;20231;-57
2022/08/13 07:25:30;;;;;;;3.47;2.60;;;27.40;99.90;;;;;;5025929;28;20697;-57
2022/08/13 07:28:23;;;;;;;4.90;2.77;;;27.60;99.90;;;;;;5042081;28;20229;-57
2022/08/13 07:31:12;;;;;;;3.40;2.50;;;28.00;99.90;;;;;;5030352;28;20224;-58
2022/08/13 07:33:44;;;;;;;4.47;2.20;;;28.20;99.90;;;;;;5031260;28;20220;-57
2022/08/13 07:36:27;;;;;;;6.53;2.83;;;28.30;99.90;;;;;;5030715;28;20227;-57
2022/08/13 07:38:58;;;;;;;4.10;2.43;;;28.40;99.90;;;;;;5031274;28;20227;-57
2022/08/13 07:41:27;;;;;;;4.37;2.10;;;28.70;99.90;;;;;;5031031;28;20227;-57
2022/08/13 07:44:01;;;;;;;4.83;2.50;;;28.80;99.90;;;;;;5031179;28;20294;-57
2022/08/13 07:46:42;;;;;;;2.67;2.20;;;29.30;99.90;;;;;;5035416;28;20251;-57
2022/08/13 07:49:18;;;;;;;3.20;2.50;;;29.80;99.90;;;;;;5034635;28;20232;-58
2022/08/13 07:51:48;;;;;;;2.70;2.50;;;30.00;99.90;;;;;;5034806;28;20228;-57
2022/08/13 07:54:20;;;;;;;4.10;2.73;;;30.10;99.90;;;;;;5035531;28;20220;-57
2022/08/13 07:56:55;;;;;;;5.57;2.70;;;30.20;99.90;;;;;;5035431;28;20680;-57
2022/08/13 07:59:22;;;;;;;4.37;2.70;;;30.40;99.90;;;;;;5034868;28;20730;-57
2022/08/13 08:02:12;;;;;;;3.53;2.60;;;30.50;99.90;;;;;;5026688;28;20240;-57
2022/08/13 08:04:51;;;;;;;3.37;2.50;;;30.50;99.90;;;;;;5035131;28;20245;-57
2022/08/13 08:07:22;;;;;;;5.57;2.60;;;30.80;99.90;;;;;;5033171;28;20721;-57
2022/08/13 08:09:53;;;;;;;4.83;2.73;;;30.90;99.90;;;;;;5031573;28;20225;-58
2022/08/13 08:12:35;;;;;;;4.77;2.70;;;31.00;99.90;;;;;;5034944;28;20280;-57
2022/08/13 08:15:15;;;;;;;5.00;2.67;;;31.10;99.90;;;;;;5034671;28;20225;-58
2022/08/13 08:17:51;;;;;;;2.50;2.10;;;31.10;99.90;;;;;;5034950;28;20226;-57
2022/08/13 08:20:42;;;;;;;4.53;2.33;;;31.50;99.90;;;;;;5033833;28;20226;-57
2022/08/13 08:23:27;;;;;;;4.10;2.73;;;31.90;99.90;;;;;;5032830;28;20708;-58
2022/08/13 08:26:18;;;;;;;4.10;2.50;;;31.90;99.90;;;;;;5026723;28;20218;-57
2022/08/13 08:28:49;;;;;;;4.87;2.60;;;31.80;99.60;;;;;;5034397;28;20556;-58
2022/08/13 08:31:19;;;;;;;3.37;2.50;;;31.90;99.90;;;;;;5033901;28;20296;-58
2022/08/13 08:34:08;;;;;;;3.73;2.20;;;31.90;99.90;;;;;;5034668;28;20235;-57
2022/08/13 08:36:41;;;;;;;3.73;2.30;;;32.20;99.60;;;;;;5034335;28;20251;-58
2022/08/13 08:44:59;;;;;;;6.07;2.30;;;32.30;97.20;;;;;;5034606;28;20238;-58
2022/08/13 08:47:30;;;;;;;3.87;2.07;;;32.70;97.80;;;;;;5034541;28;20235;-58
2022/08/13 08:50:17;;;;;;;2.67;1.90;;;32.90;97.30;;;;;;5032320;28;20230;-58
2022/08/13 08:56:08;;;;;;;3.67;2.20;;;33.10;95.30;;;;;;5033266;28;20676;-58
2022/08/13 08:58:40;;;;;;;4.13;2.17;;;33.10;95.10;;;;;;5034105;28;20232;-58
2022/08/13 09:01:12;;;;;;;2.77;2.00;;;33.20;94.20;;;;;;5030532;28;20231;-57
2022/08/13 09:03:46;;;;;;;4.53;1.90;;;33.10;92.50;;;;;;5033426;28;20255;-57
2022/08/13 09:06:28;;;;;;;3.53;1.90;;;33.40;91.80;;;;;;5033935;28;20252;-58
2022/08/13 09:09:17;;;;;;;2.70;1.90;;;33.20;91.40;;;;;;5025612;28;20307;-59
2022/08/13 09:11:49;;;;;;;2.43;1.90;;;33.50;89.60;;;;;;5033450;28;20227;-58
2022/08/13 09:14:26;;;;;;;2.13;1.63;;;33.40;90.60;;;;;;5033950;28;20773;-58
2022/08/13 09:16:56;;;;;;;3.50;1.70;;;33.30;88.60;;;;;;5033900;28;20222;-58
2022/08/13 09:19:27;;;;;;;1.90;1.70;;;33.20;88.80;;;;;;5033902;28;20227;-58
2022/08/13 09:22:18;;;;;;;2.20;1.70;;;33.10;89.00;;;;;;5027867;28;20327;-58
2022/08/13 09:24:56;;;;;;;5.10;2.03;;;33.30;90.60;;;;;;5040910;28;20232;-58
2022/08/13 09:27:28;;;;;;;3.53;1.60;;;33.10;88.80;;;;;;5044149;28;20246;-59
2022/08/13 09:30:17;;;;;;;4.10;2.07;;;33.10;87.30;;;;;;5035124;28;20217;-58
2022/08/13 09:32:57;;;;;;;5.37;1.90;;;33.20;87.40;;;;;;5037132;28;20269;-58
2022/08/13 09:35:28;;;;;;;3.50;1.93;;;32.90;87.10;;;;;;5041974;28;20327;-59
2022/08/13 09:38:06;;;;;;;2.33;2.10;;;33.40;88.10;;;;;;5045869;28;20227;-58
2022/08/13 09:40:41;;;;;;;2.17;1.80;;;33.70;84.60;;;;;;5038473;28;20225;-58
2022/08/13 09:43:31;;;;;;;3.23;2.20;;;33.30;83.60;;;;;;5040107;28;20230;-58
2022/08/13 09:46:23;;;;;;;4.30;1.80;;;33.20;85.10;;;;;;5039833;28;20225;-58
2022/08/13 09:48:56;;;;;;;4.67;1.63;;;33.40;83.80;;;;;;5037626;28;20681;-58
2022/08/13 09:51:32;;;;;;;2.37;1.70;;;33.30;82.10;;;;;;5037851;28;20235;-59
2022/08/13 09:54:22;;;;;;;4.87;1.87;;;33.30;81.90;;;;;;5040397;28;20222;-58
2022/08/13 09:56:58;;;;;;;3.07;2.00;;;33.40;83.50;;;;;;5029767;28;20219;-58
2022/08/13 09:59:28;;;;;;;4.47;2.00;;;33.50;82.20;;;;;;5032984;28;20708;-58
2022/08/13 10:02:09;;;;;;;1.83;1.70;;;33.60;81.60;;;;;;5036739;28;20242;-57
2022/08/13 10:04:42;;;;;;;2.17;1.97;;;33.60;80.80;;;;;;5040012;28;20228;-58
2022/08/13 10:07:14;;;;;;;3.70;1.87;;;33.70;81.60;;;;;;5038319;28;20263;-58
2022/08/13 10:09:49;;;;;;;3.77;1.93;;;33.90;82.40;;;;;;5030866;28;20216;-58
2022/08/13 10:12:37;;;;;;;7.17;2.27;;;33.70;80.50;;;;;;5032709;28;20230;-58
2022/08/13 10:15:08;;;;;;;4.17;1.93;;;33.90;81.00;;;;;;5042665;28;20293;-58
2022/08/13 10:17:53;;;;;;;2.73;1.87;;;34.70;80.90;;;;;;5041474;28;20274;-58
2022/08/13 10:20:25;;;;;;;1.93;1.60;;;34.10;76.70;;;;;;5039187;28;20233;-58
2022/08/13 10:22:54;;;;;;;3.23;2.07;;;34.10;77.10;;;;;;5039176;28;20636;-58
2022/08/13 10:25:23;;;;;;;6.77;2.20;;;33.90;77.40;;;;;;5032548;28;20228;-58
2022/08/13 10:28:16;;;;;;;5.47;2.03;;;33.70;77.10;;;;;;5025054;28;20698;-58
2022/08/13 10:30:58;;;;;;;2.57;2.00;;;33.80;78.20;;;;;;5022570;28;20236;-58
2022/08/13 10:33:52;;;;;;;4.27;2.30;;;34.20;78.80;;;;;;5020144;28;20234;-58
2022/08/13 10:36:21;;;;;;;3.13;2.03;;;34.50;76.10;;;;;;5019165;28;20229;-59
2022/08/13 10:38:54;;;;;;;3.07;2.00;;;35.10;77.50;;;;;;5019879;28;20240;-59
2022/08/13 10:41:23;;;;;;;2.57;1.90;;;35.00;75.10;;;;;;5017241;28;20239;-59
2022/08/13 10:43:55;;;;;;;4.63;2.00;;;34.70;73.00;;;;;;5019987;28;20347;-58
2022/08/13 10:46:26;;;;;;;3.97;2.13;;;34.50;73.40;;;;;;5021445;28;20239;-58
2022/08/13 10:48:58;;;;;;;3.27;1.70;;;34.20;73.10;;;;;;5019126;28;20244;-59
2022/08/13 10:51:28;;;;;;;4.17;2.10;;;34.50;75.70;;;;;;5016112;28;20237;-59
2022/08/13 10:53:58;;;;;;;3.93;2.10;;;34.70;74.50;;;;;;5021407;28;20295;-58
2022/08/13 10:56:29;;;;;;;4.23;2.20;;;34.40;73.50;;;;;;5021440;28;20239;-58
2022/08/13 10:58:59;;;;;;;4.27;2.10;;;34.50;75.80;;;;;;5020533;28;20228;-59
2022/08/13 11:01:28;;;;;;;2.60;2.10;;;34.60;74.00;;;;;;5016558;28;20323;-59
2022/08/13 11:04:01;;;;;;;4.93;2.23;;;34.70;74.70;;;;;;5021208;28;20251;-58
2022/08/13 11:06:32;;;;;;;3.33;2.00;;;34.30;73.20;;;;;;5020756;28;20242;-59
2022/08/13 11:09:06;;;;;;;4.80;2.20;;;34.20;73.90;;;;;;5021761;28;21588;-58
2022/08/13 11:11:55;;;;;;;2.70;2.37;;;34.30;72.50;;;;;;5017270;28;20231;-59
2022/08/13 11:14:26;;;;;;;4.57;2.40;;;34.40;71.90;;;;;;5020779;28;20310;-58
2022/08/13 11:17:09;;;;;;;7.17;2.20;;;34.40;73.40;;;;;;5020353;28;20733;-59
2022/08/13 11:20:04;;;;;;;3.23;2.50;;;34.40;72.00;;;;;;5018859;28;20243;-59
2022/08/13 11:22:36;;;;;;;2.63;2.37;;;34.20;73.00;;;;;;5023380;28;20233;-58
2022/08/13 11:25:05;;;;;;;4.17;2.20;;;34.30;71.30;;;;;;5023755;28;20233;-58
2022/08/13 11:27:53;;;;;;;4.37;2.23;;;34.50;73.70;;;;;;5022035;28;20228;-59
2022/08/13 11:30:23;;;;;;;2.67;2.20;;;34.60;73.20;;;;;;5019832;28;20225;-58
2022/08/13 11:33:05;;;;;;;2.33;2.13;;;34.70;73.30;;;;;;5024727;28;20236;-58
2022/08/13 11:35:42;;;;;;;3.83;2.40;;;34.90;72.70;;;;;;5025272;28;20232;-59
2022/08/13 11:38:18;;;;;;;5.00;2.60;;;34.90;71.40;;;;;;5024332;28;20225;-59
2022/08/13 11:40:48;;;;;;;2.43;2.13;;;35.30;71.30;;;;;;5019702;28;20283;-58
2022/08/13 11:43:19;;;;;;;2.30;2.10;;;35.50;70.80;;;;;;5024080;28;20784;-58
2022/08/13 11:45:49;;;;;;;3.60;2.30;;;35.40;69.50;;;;;;5023211;28;20234;-58
2022/08/13 11:48:17;;;;;;;2.10;1.90;;;35.00;70.10;;;;;;5023678;28;20224;-59
2022/08/13 11:51:05;;;;;;;2.47;2.20;;;35.20;69.90;;;;;;5019326;28;20302;-58
2022/08/13 11:53:33;;;;;;;5.00;2.30;;;35.30;69.60;;;;;;5023034;28;20232;-59
2022/08/13 11:56:21;;;;;;;5.40;2.60;;;35.10;69.00;;;;;;5024621;28;20231;-58
2022/08/13 11:58:52;;;;;;;3.10;2.50;;;34.80;70.10;;;;;;5022451;28;20251;-59
2022/08/13 12:01:23;;;;;;;4.83;2.50;;;34.60;70.80;;;;;;5017788;28;20716;-59
2022/08/13 12:04:04;;;;;;;5.23;2.70;;;34.40;71.70;;;;;;5021018;28;20330;-59
2022/08/13 12:06:54;;;;;;;4.47;2.60;;;34.10;70.70;;;;;;5022397;28;20239;-59
2022/08/13 12:09:22;;;;;;;5.27;2.40;;;34.10;71.50;;;;;;5022447;28;20235;-59
2022/08/13 12:12:11;;;;;;;2.90;2.70;;;33.80;71.20;;;;;;5022043;28;20248;-58
2022/08/13 12:14:49;;;;;;;5.27;2.60;;;33.60;71.70;;;;;;5022121;28;20220;-58
2022/08/13 12:17:17;;;;;;;3.77;2.90;;;33.70;72.50;;;;;;5023253;28;20692;-59
2022/08/13 12:20:07;;;;;;;3.43;3.13;;;33.50;71.90;;;;;;5019520;28;20225;-59
2022/08/13 12:22:49;;;;;;;3.60;3.07;;;33.30;72.50;;;;;;5023646;28;20363;-59
2022/08/13 12:25:20;;;;;;;3.80;3.23;;;33.40;72.60;;;;;;5022129;28;20311;-58
2022/08/13 12:28:14;;;;;;;3.80;3.13;;;33.20;73.90;;;;;;5024249;28;20231;-59
2022/08/13 12:30:51;;;;;;;3.60;3.20;;;33.10;74.70;;;;;;5027859;28;20734;-58
2022/08/13 12:33:20;;;;;;;5.37;3.40;;;33.30;75.60;;;;;;5032962;28;20240;-59
2022/08/13 12:35:50;;;;;;;3.77;3.30;;;33.30;73.40;;;;;;5034869;28;20298;-58
2022/08/13 12:38:26;;;;;;;4.90;3.50;;;33.10;74.70;;;;;;5034214;28;20265;-58
2022/08/13 12:40:58;;;;;;;4.27;3.10;;;33.20;75.00;;;;;;5032022;28;20754;-58
2022/08/13 12:43:44;;;;;;;3.57;3.27;;;33.10;75.70;;;;;;5031088;28;20636;-58
2022/08/13 12:46:32;;;;;;;6.00;3.10;;;33.10;75.70;;;;;;5034271;28;20233;-59
2022/08/13 12:49:02;;;;;;;6.87;3.53;;;32.90;74.90;;;;;;5034261;28;20244;-58
2022/08/13 12:51:38;;;;;;;5.67;3.40;;;32.70;76.30;;;;;;5033289;28;20224;-59
2022/08/13 12:54:25;;;;;;;5.03;3.40;;;32.20;75.60;;;;;;5027887;28;20672;-57
2022/08/13 12:57:14;;;;;;;4.40;3.33;;;32.30;76.90;;;;;;5034372;28;20707;-59
2022/08/13 13:00:02;;;;;;;5.03;3.77;;;32.50;77.80;;;;;;5033144;28;20232;-58
2022/08/13 13:02:33;;;;;;;4.93;3.80;;;32.20;75.90;;;;;;5033281;28;20242;-58
2022/08/13 13:05:02;;;;;;;5.30;3.17;;;32.30;76.40;;;;;;5033970;28;20619;-58
2022/08/13 13:07:48;;;;;;;7.03;4.07;;;32.60;77.70;;;;;;5032624;28;20595;-58
2022/08/13 13:10:40;;;;;;;7.47;3.70;;;32.50;76.20;;;;;;5033261;28;20224;-58
2022/08/13 13:13:15;;;;;;;6.23;3.70;;;32.30;76.80;;;;;;5033838;28;20232;-58
2022/08/13 13:16:05;;;;;;;4.23;3.47;;;32.60;77.40;;;;;;5033280;28;20243;-58
2022/08/13 13:18:53;;;;;;;4.10;3.70;;;32.70;76.90;;;;;;5033697;28;20680;-58
2022/08/13 13:21:29;;;;;;;5.70;3.87;;;32.40;77.10;;;;;;5031899;28;20311;-58
2022/08/13 13:24:08;;;;;;;6.43;3.87;;;32.30;77.70;;;;;;5033147;28;20592;-58
2022/08/13 13:26:47;;;;;;;5.73;3.73;;;32.20;78.50;;;;;;5030255;28;20242;-58
2022/08/13 13:29:28;;;;;;;4.50;3.63;;;32.20;78.10;;;;;;5026901;28;20243;-58
2022/08/13 13:32:02;;;;;;;5.00;3.77;;;32.10;78.40;;;;;;5026785;28;20246;-58
2022/08/13 13:34:50;;;;;;;4.20;3.80;;;32.10;79.20;;;;;;5032638;28;20310;-58
2022/08/13 13:37:21;;;;;;;5.53;4.10;;;32.10;78.80;;;;;;5032617;28;20229;-58
2022/08/13 13:39:49;;;;;;;8.87;4.37;;;32.30;78.80;;;;;;5031616;28;20236;-58
2022/08/13 13:42:19;;;;;;;4.93;3.90;;;32.00;77.80;;;;;;5028586;28;20730;-58
2022/08/13 13:44:57;;;;;;;5.40;4.00;;;32.20;78.80;;;;;;5032302;28;20224;-58
2022/08/13 13:47:25;;;;;;;7.60;4.27;;;32.30;77.70;;;;;;5032386;28;20222;-58
2022/08/13 13:49:53;;;;;;;6.10;4.00;;;32.30;78.20;;;;;;5032774;28;20226;-58
2022/08/13 13:52:22;;;;;;;4.70;4.20;;;32.30;78.30;;;;;;5032883;28;20229;-58
2022/08/13 13:54:53;;;;;;;5.97;4.10;;;32.30;79.30;;;;;;5032317;28;20259;-58
2022/08/13 13:57:27;;;;;;;4.97;4.17;;;31.90;79.30;;;;;;5018038;28;20228;-58